CheckWX is a tool to help pilots better visualize weather data.  It is not intended as a substitute for an official pre-flight weather briefing.

08:36:52 UTC

OJAM TAF
Amman-Marka International Airport
Amman, Jordan
TAF OJAM 060517Z 0606/0712 26014KT 6000 SCT020 PROB30 0612/0618 4000 -RA FEW020 SCT025 PROB40 0702/0706 VRB02KT 2000 BR

Dec-6@
06:00 UTC

Dec-6 @ 06:00 UTC

Dec-7@
12:00 UTC

Dec-7 @ 12:00 UTC

TAF OJAM 060517Z 0606/0712 26014KT 6000 SCT020
Wind
  • 260° at 14 KTS
Cloud Levels
  • Scattered at 2,000' AGL

Dec-6@
12:00 UTC

Dec-6 @ 12:00 UTC

Dec-6@
18:00 UTC

Dec-6 @ 18:00 UTC

PROB30 0612/0618 4000 -RA FEW020 SCT025

Probable - 30% Likelihood

Probable - 30% Likelihood during this time.

Conditions
Light Rain
Cloud Levels
  • Few at 2,000' AGL
  • Scattered at 2,500' AGL

Dec-7@
02:00 UTC

Dec-7 @ 02:00 UTC

Dec-7@
06:00 UTC

Dec-7 @ 06:00 UTC

PROB40 0702/0706 VRB02KT 2000 BR

Probable - 40% Likelihood

Probable - 40% Likelihood during this time.

Wind
  • Variable at 2 KTS
Conditions
Mist